Time;durP1;ratioP1;P1;durP2;ratioP2;P2;SDS_P1;SDS_P2;PMS_P1;PMS_P2;Temp;Humidity;BMP_temperature;BMP_pressure;BME280_temperature;BME280_humidity;BME280_pressure;Samples;Min_cycle;Max_cycle;Signal;HPM_P1;HPM_P2
2022/04/16 00:00:18;;;;;;;10.80;3.87;;;9.00;54.50;;;;;;5055600;28;47853;-66
2022/04/16 00:02:47;;;;;;;5.60;3.97;;;9.00;54.40;;;;;;5084731;28;46429;-66
2022/04/16 00:05:14;;;;;;;8.00;3.90;;;8.90;54.60;;;;;;5066055;28;45774;-65
2022/04/16 00:08:06;;;;;;;5.43;3.90;;;8.90;55.00;;;;;;5067029;28;46476;-66
2022/04/16 00:10:35;;;;;;;8.47;4.77;;;8.80;55.00;;;;;;5082300;28;47305;-65
2022/04/16 00:13:02;;;;;;;6.60;4.30;;;8.80;54.80;;;;;;5064734;28;46557;-65
2022/04/16 00:15:27;;;;;;;7.10;3.57;;;8.80;54.60;;;;;;5083998;28;46335;-65
2022/04/16 00:17:55;;;;;;;6.70;4.37;;;8.80;54.90;;;;;;5066949;28;46490;-65
2022/04/16 00:20:24;;;;;;;7.47;4.70;;;8.80;55.10;;;;;;5064674;28;48142;-64
2022/04/16 00:22:54;;;;;;;5.17;3.60;;;8.70;55.00;;;;;;5066297;28;45980;-65
2022/04/16 00:25:20;;;;;;;5.80;4.07;;;8.70;55.30;;;;;;5065919;28;46426;-65
2022/04/16 00:27:49;;;;;;;5.87;3.50;;;8.70;55.20;;;;;;5066281;28;46423;-65
2022/04/16 00:30:17;;;;;;;6.00;3.70;;;8.70;55.30;;;;;;5066252;28;47108;-65
2022/04/16 00:32:44;;;;;;;5.67;3.70;;;8.70;55.00;;;;;;5066115;28;46617;-64
2022/04/16 00:35:10;;;;;;;6.37;4.10;;;8.80;54.80;;;;;;5062648;28;46405;-64
2022/04/16 00:37:36;;;;;;;5.70;3.80;;;8.80;54.70;;;;;;5066115;28;46373;-65
2022/04/16 00:40:02;;;;;;;6.93;4.17;;;8.80;54.40;;;;;;5065681;28;48055;-64
2022/04/16 00:42:49;;;;;;;7.20;4.10;;;8.80;54.40;;;;;;5084161;28;46446;-64
2022/04/16 00:45:16;;;;;;;5.80;3.83;;;8.70;54.60;;;;;;5083374;28;46368;-66
2022/04/16 00:47:42;;;;;;;5.50;3.20;;;8.60;54.60;;;;;;5061241;28;46540;-65
2022/04/16 00:50:09;;;;;;;6.37;3.67;;;8.60;54.80;;;;;;5061337;28;48095;-64
2022/04/16 00:52:37;;;;;;;5.40;3.70;;;8.60;54.70;;;;;;5060028;28;46477;-67
2022/04/16 00:55:05;;;;;;;6.40;4.07;;;8.60;54.90;;;;;;5062050;28;46499;-66
2022/04/16 00:57:31;;;;;;;8.40;4.13;;;8.50;54.80;;;;;;5064332;28;46576;-65
2022/04/16 00:59:57;;;;;;;4.90;3.37;;;8.50;54.70;;;;;;5063037;28;48167;-66
2022/04/16 01:02:22;;;;;;;7.17;4.10;;;8.40;54.80;;;;;;5053672;28;46497;-65
2022/04/16 01:04:49;;;;;;;6.37;4.07;;;8.40;54.80;;;;;;5063536;28;46508;-64
2022/04/16 01:07:24;;;;;;;13.93;4.50;;;8.40;55.00;;;;;;5063587;28;46406;-65
2022/04/16 01:09:51;;;;;;;5.10;3.70;;;8.40;55.00;;;;;;5062540;28;48153;-65
2022/04/16 01:12:17;;;;;;;6.50;4.33;;;8.40;54.90;;;;;;5063895;28;46247;-65
2022/04/16 01:14:43;;;;;;;5.80;4.20;;;8.30;55.00;;;;;;5063071;28;46365;-65
2022/04/16 01:17:09;;;;;;;6.13;3.83;;;8.20;55.10;;;;;;5082205;28;46422;-65
2022/04/16 01:19:37;;;;;;;6.53;4.30;;;8.20;55.30;;;;;;5063478;28;46480;-64
2022/04/16 01:22:05;;;;;;;6.63;4.53;;;8.20;55.30;;;;;;5063852;28;46337;-65
2022/04/16 01:24:31;;;;;;;6.10;3.80;;;8.20;55.50;;;;;;5062119;28;46266;-63
2022/04/16 01:26:58;;;;;;;6.70;4.50;;;8.10;55.40;;;;;;5061057;28;46455;-65
2022/04/16 01:29:24;;;;;;;6.90;4.30;;;8.10;55.40;;;;;;5062403;28;47859;-65
2022/04/16 01:31:50;;;;;;;7.00;4.40;;;8.20;55.20;;;;;;5064295;28;46444;-64
2022/04/16 01:34:17;;;;;;;7.17;4.50;;;8.20;55.00;;;;;;5062989;28;46402;-66
2022/04/16 01:36:43;;;;;;;7.00;4.17;;;8.20;54.90;;;;;;5063413;28;46601;-66
2022/04/16 01:39:09;;;;;;;6.47;4.00;;;8.10;55.10;;;;;;5063118;28;46119;-64
2022/04/16 01:41:36;;;;;;;9.20;4.97;;;8.10;55.30;;;;;;5082029;28;46369;-65
2022/04/16 01:44:02;;;;;;;7.90;4.10;;;8.00;55.20;;;;;;5062280;28;46415;-65
2022/04/16 01:46:29;;;;;;;5.30;3.77;;;8.00;55.50;;;;;;5061367;28;46338;-66
2022/04/16 01:48:55;;;;;;;6.50;3.90;;;8.00;55.70;;;;;;5062737;28;48843;-65
2022/04/16 01:51:21;;;;;;;6.50;4.13;;;8.00;55.60;;;;;;5062995;28;46430;-65
2022/04/16 01:53:47;;;;;;;9.83;4.23;;;8.00;55.60;;;;;;5063287;28;45822;-66
2022/04/16 01:56:13;;;;;;;5.70;4.27;;;8.00;55.60;;;;;;5062798;28;46580;-65
2022/04/16 01:58:39;;;;;;;5.90;4.00;;;8.00;55.60;;;;;;5061617;28;48752;-65
2022/04/16 02:01:05;;;;;;;7.50;4.63;;;8.00;55.70;;;;;;5062531;28;46323;-65
2022/04/16 02:03:32;;;;;;;6.07;3.90;;;8.00;55.60;;;;;;5062990;28;46578;-64
2022/04/16 02:05:57;;;;;;;8.67;3.80;;;8.00;55.70;;;;;;5062780;28;45865;-65
2022/04/16 02:08:23;;;;;;;5.30;3.70;;;8.00;55.70;;;;;;5062400;28;46450;-65
2022/04/16 02:10:49;;;;;;;6.30;3.90;;;8.00;56.00;;;;;;5062798;28;46397;-66
2022/04/16 02:13:15;;;;;;;7.10;4.20;;;7.90;56.00;;;;;;5062755;28;46456;-65
2022/04/16 02:15:40;;;;;;;7.50;4.27;;;7.90;56.30;;;;;;5059885;28;46378;-65
2022/04/16 02:18:06;;;;;;;8.57;4.13;;;7.70;56.50;;;;;;5062490;28;46691;-65
2022/04/16 02:20:32;;;;;;;5.70;3.97;;;7.60;56.90;;;;;;5063085;28;46433;-67
2022/04/16 02:22:58;;;;;;;7.00;4.70;;;7.50;57.20;;;;;;5063157;28;46397;-65
2022/04/16 02:25:24;;;;;;;6.77;4.60;;;7.50;57.50;;;;;;5081526;28;46455;-66
2022/04/16 02:27:51;;;;;;;8.87;4.57;;;7.40;57.60;;;;;;5062520;28;47709;-65
2022/04/16 02:30:18;;;;;;;9.00;5.10;;;7.40;57.60;;;;;;5062780;28;46331;-65
2022/04/16 02:32:52;;;;;;;7.40;4.50;;;7.30;57.80;;;;;;5063201;28;46306;-64
2022/04/16 02:35:18;;;;;;;8.33;4.97;;;7.20;58.10;;;;;;5060560;28;46501;-65
2022/04/16 02:37:45;;;;;;;7.93;4.70;;;7.20;58.60;;;;;;5062484;28;46633;-64
2022/04/16 02:40:12;;;;;;;7.37;5.20;;;7.10;58.70;;;;;;5062649;28;46560;-65
2022/04/16 02:42:39;;;;;;;8.77;4.90;;;7.10;58.80;;;;;;5062584;28;46374;-65
2022/04/16 02:47:52;;;;;;;9.40;5.47;;;7.00;59.00;;;;;;5079253;28;46751;-64
2022/04/16 02:50:18;;;;;;;9.60;6.10;;;7.00;58.90;;;;;;5061147;28;46283;-63
2022/04/16 02:52:46;;;;;;;9.73;6.10;;;6.90;59.00;;;;;;5060639;28;46483;-65
2022/04/16 02:55:15;;;;;;;8.90;5.77;;;6.90;59.40;;;;;;5061828;28;46488;-63
2022/04/16 02:57:42;;;;;;;10.03;6.00;;;6.80;59.50;;;;;;5076312;28;46482;-63
2022/04/16 03:00:10;;;;;;;10.23;6.10;;;6.80;59.50;;;;;;5058494;28;46289;-65
2022/04/16 03:02:36;;;;;;;14.73;8.73;;;6.80;59.70;;;;;;5060136;28;46510;-65
2022/04/16 03:05:03;;;;;;;27.33;15.67;;;6.80;59.90;;;;;;5061935;28;45980;-67
2022/04/16 03:07:29;;;;;;;15.40;9.03;;;6.70;59.90;;;;;;5054780;28;47193;-65
2022/04/16 03:09:55;;;;;;;16.73;10.53;;;6.70;59.90;;;;;;5061465;27;46357;-65
2022/04/16 03:12:21;;;;;;;16.53;10.00;;;6.60;60.00;;;;;;5057966;28;46409;-65
2022/04/16 03:17:33;;;;;;;29.30;19.00;;;6.60;60.10;;;;;;5084463;28;46805;-64
2022/04/16 03:20:05;;;;;;;29.27;19.83;;;6.50;60.00;;;;;;5053506;28;46645;-63
2022/04/16 03:22:35;;;;;;;29.43;18.57;;;6.50;60.00;;;;;;5066221;28;45833;-64
2022/04/16 03:25:07;;;;;;;26.20;16.87;;;6.50;60.00;;;;;;5080292;28;46470;-64
2022/04/16 03:27:32;;;;;;;15.50;9.30;;;6.50;60.00;;;;;;5056644;28;47117;-65
2022/04/16 03:29:58;;;;;;;15.87;9.27;;;6.40;60.00;;;;;;5065779;28;46375;-65
2022/04/16 03:32:24;;;;;;;15.77;9.93;;;6.40;60.00;;;;;;5084184;28;46596;-63
2022/04/16 03:34:49;;;;;;;17.97;11.30;;;6.30;60.20;;;;;;5065349;28;46354;-64
2022/04/16 03:37:15;;;;;;;17.47;11.37;;;6.30;60.20;;;;;;5065498;28;48223;-63
2022/04/16 03:39:41;;;;;;;20.73;13.43;;;6.20;60.20;;;;;;5062135;28;46398;-64
2022/04/16 03:42:07;;;;;;;18.57;11.97;;;6.20;60.20;;;;;;5066038;28;46374;-65
2022/04/16 03:44:32;;;;;;;16.83;7.13;;;6.20;61.50;;;;;;5065220;28;46365;-64
2022/04/16 03:46:58;;;;;;;9.13;6.47;;;6.20;60.40;;;;;;5065053;28;47873;-64
2022/04/16 03:49:24;;;;;;;12.20;6.97;;;6.10;60.50;;;;;;5065784;28;46359;-65
2022/04/16 03:51:50;;;;;;;9.67;6.10;;;6.00;60.60;;;;;;5065659;28;46449;-67
2022/04/16 04:00:03;;;;;;;11.60;6.50;;;5.90;61.10;;;;;;5083199;28;46408;-64
2022/04/16 04:02:33;;;;;;;10.93;6.53;;;5.80;61.20;;;;;;5064868;28;46538;-65
2022/04/16 04:04:59;;;;;;;10.57;6.70;;;5.80;61.50;;;;;;5064653;28;46363;-66
2022/04/16 04:07:25;;;;;;;14.00;7.17;;;5.70;61.70;;;;;;5064527;28;47865;-65
2022/04/16 04:09:51;;;;;;;11.33;6.20;;;5.70;61.70;;;;;;5064931;28;46406;-65
2022/04/16 04:12:17;;;;;;;11.13;6.30;;;5.70;61.70;;;;;;5065416;28;46383;-64
2022/04/16 04:14:47;;;;;;;9.17;5.57;;;5.60;61.60;;;;;;5064742;28;46488;-64
2022/04/16 04:17:15;;;;;;;9.03;5.80;;;5.60;61.70;;;;;;5065238;28;48694;-65
2022/04/16 04:19:43;;;;;;;10.50;6.10;;;5.60;61.60;;;;;;5064165;28;46342;-66
2022/04/16 04:22:10;;;;;;;9.83;6.10;;;5.50;61.50;;;;;;5052540;28;46443;-63
2022/04/16 04:24:37;;;;;;;10.07;6.10;;;5.50;61.50;;;;;;5083220;28;46327;-64
2022/04/16 04:27:03;;;;;;;10.23;6.20;;;5.40;61.40;;;;;;5064757;28;48021;-65
2022/04/16 04:29:29;;;;;;;8.93;5.67;;;5.50;61.60;;;;;;5064651;28;46519;-64
2022/04/16 04:31:58;;;;;;;11.03;5.97;;;5.50;61.60;;;;;;5065023;28;46372;-66
2022/04/16 04:34:24;;;;;;;11.17;5.90;;;5.50;61.60;;;;;;5056067;28;46819;-63
2022/04/16 04:36:49;;;;;;;11.33;6.40;;;5.50;61.50;;;;;;5064020;28;47995;-64
2022/04/16 04:39:15;;;;;;;10.97;6.33;;;5.50;61.50;;;;;;5064650;28;46655;-64
2022/04/16 04:41:43;;;;;;;15.37;6.90;;;5.60;61.70;;;;;;5064793;28;46411;-66
2022/04/16 04:44:15;;;;;;;10.27;5.73;;;5.60;61.60;;;;;;5063764;28;46200;-64
2022/04/16 04:46:42;;;;;;;12.80;6.97;;;5.60;61.60;;;;;;5054346;28;48194;-66
2022/04/16 04:49:08;;;;;;;10.00;6.30;;;5.60;61.60;;;;;;5064501;28;46470;-65
2022/04/16 04:51:39;;;;;;;11.27;5.93;;;5.70;61.70;;;;;;5082997;28;46488;-64
2022/04/16 04:54:06;;;;;;;10.73;6.43;;;5.80;61.80;;;;;;5063372;28;46327;-63
2022/04/16 04:56:32;;;;;;;11.67;6.53;;;5.90;61.70;;;;;;5079688;28;47762;-63
2022/04/16 04:58:58;;;;;;;11.63;7.13;;;6.00;61.60;;;;;;5064379;28;46298;-64
2022/04/16 05:01:24;;;;;;;11.30;7.20;;;6.20;61.10;;;;;;5064651;28;46314;-63
2022/04/16 05:03:50;;;;;;;14.73;7.53;;;6.30;60.80;;;;;;5056196;28;46688;-64
2022/04/16 05:06:16;;;;;;;10.40;6.00;;;6.50;60.30;;;;;;5063247;28;48138;-64
2022/04/16 05:08:43;;;;;;;11.50;6.80;;;6.70;60.00;;;;;;5063527;28;46391;-64
2022/04/16 05:11:10;;;;;;;11.90;6.80;;;6.70;60.00;;;;;;5063462;28;46374;-64
2022/04/16 05:13:35;;;;;;;16.00;6.20;;;6.80;60.10;;;;;;5063780;28;46302;-65
2022/04/16 05:16:01;;;;;;;10.27;6.50;;;6.90;60.10;;;;;;5081381;28;46497;-65
2022/04/16 05:18:27;;;;;;;11.97;6.00;;;7.00;59.80;;;;;;5065311;28;46683;-64
2022/04/16 05:20:52;;;;;;;8.80;5.90;;;7.10;60.90;;;;;;5064187;28;46400;-65
2022/04/16 05:23:18;;;;;;;9.73;5.73;;;7.10;60.00;;;;;;5064471;28;46364;-64
2022/04/16 05:25:44;;;;;;;9.77;6.00;;;7.10;60.10;;;;;;5063237;28;47288;-64
2022/04/16 05:28:09;;;;;;;8.87;5.50;;;7.10;60.20;;;;;;5063262;28;46282;-64
2022/04/16 05:30:39;;;;;;;12.53;5.50;;;7.20;60.20;;;;;;5063650;28;46408;-64
2022/04/16 05:33:16;;;;;;;13.97;7.57;;;7.30;60.00;;;;;;5063062;27;45901;-64
2022/04/16 05:35:42;;;;;;;9.07;6.10;;;7.40;60.20;;;;;;5076940;28;46440;-64
2022/04/16 05:38:08;;;;;;;8.87;5.60;;;7.50;60.00;;;;;;5078257;28;46422;-64
2022/04/16 05:40:34;;;;;;;9.77;5.20;;;7.60;60.00;;;;;;5060717;28;46395;-64
2022/04/16 05:42:59;;;;;;;10.33;5.70;;;7.70;60.00;;;;;;5059087;28;46370;-64
2022/04/16 05:45:25;;;;;;;9.80;5.97;;;7.80;59.80;;;;;;5059984;28;46445;-64
2022/04/16 05:47:51;;;;;;;8.53;4.97;;;7.90;59.90;;;;;;5058687;28;46220;-63
2022/04/16 05:50:16;;;;;;;7.70;4.90;;;8.00;59.80;;;;;;5041841;28;46275;-65
2022/04/16 05:52:42;;;;;;;7.30;4.90;;;8.10;59.90;;;;;;5059737;28;46550;-64
2022/04/16 05:55:09;;;;;;;11.23;5.70;;;8.20;59.90;;;;;;5056417;28;48040;-65
2022/04/16 05:57:35;;;;;;;8.63;5.70;;;8.30;59.80;;;;;;5054446;28;46419;-64
2022/04/16 06:00:01;;;;;;;7.47;4.73;;;8.40;60.00;;;;;;5060914;28;46412;-65
2022/04/16 06:02:26;;;;;;;7.53;5.10;;;9.40;59.80;;;;;;5062888;28;46426;-64
2022/04/16 06:04:52;;;;;;;9.97;4.47;;;10.20;57.50;;;;;;5062122;28;47932;-64
2022/04/16 06:07:18;;;;;;;7.53;4.67;;;11.00;55.60;;;;;;5062324;28;46409;-63
2022/04/16 06:09:46;;;;;;;6.70;4.60;;;12.00;54.30;;;;;;5080935;28;46251;-64
2022/04/16 06:12:12;;;;;;;8.23;5.37;;;12.60;52.40;;;;;;5060983;28;46346;-65
2022/04/16 06:14:38;;;;;;;7.90;4.90;;;12.50;52.40;;;;;;5060761;28;47975;-65
2022/04/16 06:17:04;;;;;;;6.57;4.77;;;12.30;52.10;;;;;;5043790;28;46433;-65
2022/04/16 06:19:29;;;;;;;8.70;4.73;;;11.40;52.90;;;;;;5061316;28;46294;-63
2022/04/16 06:21:55;;;;;;;9.50;5.30;;;10.70;53.90;;;;;;5061667;28;46157;-64
2022/04/16 06:24:21;;;;;;;10.90;5.70;;;10.20;54.90;;;;;;5061894;28;46354;-64
2022/04/16 06:26:47;;;;;;;7.20;5.20;;;9.90;56.30;;;;;;5062068;28;46400;-64
2022/04/16 06:29:14;;;;;;;10.33;5.50;;;9.70;56.20;;;;;;5062036;28;46385;-64
2022/04/16 06:31:40;;;;;;;8.77;5.83;;;9.60;55.80;;;;;;5059591;28;46542;-63
2022/04/16 06:34:06;;;;;;;15.30;6.20;;;9.60;55.50;;;;;;5061409;28;46500;-64
2022/04/16 06:36:32;;;;;;;7.87;5.10;;;9.90;54.50;;;;;;5062049;28;46460;-65
2022/04/16 06:38:57;;;;;;;11.47;5.67;;;10.10;52.50;;;;;;5080715;28;46445;-65
2022/04/16 06:41:23;;;;;;;11.10;5.73;;;10.10;52.60;;;;;;5063407;28;45974;-65
2022/04/16 06:43:49;;;;;;;22.00;6.40;;;10.10;52.40;;;;;;5062312;28;47765;-64
2022/04/16 06:46:14;;;;;;;7.70;5.43;;;10.10;52.00;;;;;;5063865;28;46378;-65
2022/04/16 06:48:40;;;;;;;8.60;5.33;;;9.90;53.50;;;;;;5061873;28;46370;-65
2022/04/16 06:51:06;;;;;;;9.73;5.80;;;9.90;53.40;;;;;;5082643;28;46355;-65
2022/04/16 06:53:31;;;;;;;9.70;5.93;;;10.00;52.40;;;;;;5064743;28;47826;-65
2022/04/16 06:56:00;;;;;;;8.57;5.60;;;10.00;52.50;;;;;;5065241;28;46374;-64
2022/04/16 06:58:30;;;;;;;8.87;6.10;;;10.10;53.90;;;;;;5054141;28;46319;-64
2022/04/16 07:00:56;;;;;;;9.07;5.93;;;10.10;52.30;;;;;;5062659;28;46018;-64
2022/04/16 07:03:22;;;;;;;9.37;5.33;;;10.10;52.10;;;;;;5064200;28;46402;-65
2022/04/16 07:05:47;;;;;;;7.90;5.43;;;10.00;52.80;;;;;;5064244;28;46409;-64
2022/04/16 07:08:13;;;;;;;9.43;5.40;;;10.20;52.50;;;;;;5085220;28;46392;-64
2022/04/16 07:10:39;;;;;;;12.10;6.17;;;10.00;52.60;;;;;;5082916;28;46479;-65
2022/04/16 07:13:05;;;;;;;7.73;5.27;;;9.90;53.70;;;;;;5064379;28;48053;-63
2022/04/16 07:15:33;;;;;;;13.43;5.37;;;10.00;52.90;;;;;;5064995;28;46428;-64
2022/04/16 07:17:59;;;;;;;9.53;6.07;;;10.00;52.70;;;;;;5065479;28;46358;-64
2022/04/16 07:20:25;;;;;;;7.63;5.70;;;9.80;54.20;;;;;;5065674;28;46375;-63
2022/04/16 07:22:54;;;;;;;9.33;6.30;;;9.70;54.40;;;;;;5065240;28;48086;-63
2022/04/16 07:25:21;;;;;;;9.20;5.60;;;9.60;54.50;;;;;;5056087;28;46479;-65
2022/04/16 07:27:46;;;;;;;8.80;5.77;;;9.60;54.70;;;;;;5065229;28;46501;-64
2022/04/16 07:30:13;;;;;;;7.63;5.23;;;9.70;54.60;;;;;;5065617;28;46494;-64
2022/04/16 07:32:39;;;;;;;8.60;5.63;;;10.00;53.10;;;;;;5065228;28;47801;-65
2022/04/16 07:35:06;;;;;;;8.80;5.63;;;10.00;52.50;;;;;;5065284;28;46404;-64
2022/04/16 07:37:32;;;;;;;7.97;5.63;;;9.90;53.80;;;;;;5083297;28;46350;-64
2022/04/16 07:39:58;;;;;;;9.00;5.07;;;9.70;54.30;;;;;;5066063;28;46555;-65
2022/04/16 07:42:27;;;;;;;8.47;5.77;;;9.60;54.40;;;;;;5065557;28;49149;-66
2022/04/16 07:44:56;;;;;;;9.20;5.73;;;9.50;54.70;;;;;;5064870;28;46433;-64
2022/04/16 07:47:22;;;;;;;8.07;5.93;;;9.50;54.90;;;;;;5065336;28;46416;-65
2022/04/16 07:49:47;;;;;;;9.23;6.27;;;9.50;54.90;;;;;;5084480;28;46212;-64
2022/04/16 07:52:13;;;;;;;12.70;6.17;;;9.40;55.20;;;;;;5065783;28;47824;-65
2022/04/16 07:54:39;;;;;;;7.80;5.27;;;9.30;55.50;;;;;;5063924;28;46327;-65
2022/04/16 07:57:05;;;;;;;9.37;5.43;;;9.20;55.60;;;;;;5064314;28;46358;-65
2022/04/16 07:59:31;;;;;;;8.50;5.73;;;9.20;55.60;;;;;;5055638;28;46384;-65
2022/04/16 08:01:57;;;;;;;8.07;5.20;;;9.30;55.30;;;;;;5064219;28;48164;-65
2022/04/16 08:04:23;;;;;;;7.83;5.00;;;9.40;55.40;;;;;;5062670;28;46456;-65
2022/04/16 08:06:50;;;;;;;8.20;5.87;;;9.40;55.30;;;;;;5063164;28;46478;-64
2022/04/16 08:09:17;;;;;;;7.50;4.83;;;9.40;55.20;;;;;;5052075;28;46371;-63
2022/04/16 08:11:46;;;;;;;10.70;6.17;;;9.50;55.00;;;;;;5061998;28;48810;-65
2022/04/16 08:14:12;;;;;;;8.27;5.33;;;9.70;54.60;;;;;;5080556;28;46441;-64
2022/04/16 08:16:38;;;;;;;8.60;5.43;;;9.70;54.70;;;;;;5062827;28;46354;-64
2022/04/16 08:19:04;;;;;;;8.10;5.37;;;9.60;55.00;;;;;;5064646;28;45963;-64
2022/04/16 08:21:32;;;;;;;9.07;5.43;;;9.80;54.70;;;;;;5062305;28;46479;-64
2022/04/16 08:24:04;;;;;;;9.83;5.50;;;9.90;54.00;;;;;;5060248;28;46476;-64
2022/04/16 08:26:31;;;;;;;7.10;5.37;;;9.90;54.40;;;;;;5063676;28;46394;-65
2022/04/16 08:28:57;;;;;;;7.67;4.97;;;9.80;54.50;;;;;;5064197;28;46569;-64
2022/04/16 08:31:22;;;;;;;7.50;5.20;;;9.80;54.80;;;;;;5064473;28;46439;-64
2022/04/16 08:33:49;;;;;;;8.73;5.47;;;9.90;54.60;;;;;;5083244;28;46355;-64
2022/04/16 08:36:15;;;;;;;8.10;5.57;;;9.80;54.60;;;;;;5064456;28;46434;-64
2022/04/16 08:38:41;;;;;;;7.40;5.00;;;9.80;54.50;;;;;;5052952;28;46349;-64
2022/04/16 08:41:10;;;;;;;8.17;4.80;;;9.80;54.50;;;;;;5064491;28;46416;-64
2022/04/16 08:43:37;;;;;;;8.30;5.73;;;10.00;53.40;;;;;;5056775;28;46321;-65
2022/04/16 08:46:04;;;;;;;9.67;6.00;;;10.20;52.90;;;;;;5063945;28;46292;-64
2022/04/16 08:48:32;;;;;;;9.00;5.50;;;10.40;52.70;;;;;;5064180;28;46548;-65
2022/04/16 08:50:58;;;;;;;8.50;5.67;;;10.80;52.40;;;;;;5064091;28;48908;-63
2022/04/16 08:53:24;;;;;;;9.30;5.47;;;11.10;51.70;;;;;;5063130;28;46438;-65
2022/04/16 08:55:50;;;;;;;8.03;6.00;;;11.40;50.60;;;;;;5051610;28;46349;-64
2022/04/16 08:58:16;;;;;;;9.70;6.10;;;11.60;50.00;;;;;;5063540;28;46418;-65
2022/04/16 09:00:42;;;;;;;10.00;6.20;;;11.60;50.00;;;;;;5063319;28;46807;-65
2022/04/16 09:03:09;;;;;;;8.30;5.50;;;11.80;49.40;;;;;;5080786;28;46443;-65
2022/04/16 09:05:35;;;;;;;7.23;5.30;;;11.80;48.50;;;;;;5054837;28;46763;-65
2022/04/16 09:08:03;;;;;;;8.27;5.10;;;12.00;48.90;;;;;;5063074;28;46485;-65
2022/04/16 09:10:30;;;;;;;7.63;5.37;;;12.10;48.80;;;;;;5062213;28;47221;-65
2022/04/16 09:12:58;;;;;;;7.80;5.13;;;12.10;48.60;;;;;;5063807;28;46385;-64
2022/04/16 09:15:25;;;;;;;6.67;4.30;;;12.20;48.80;;;;;;5063175;28;46549;-65
2022/04/16 09:17:59;;;;;;;7.00;4.47;;;12.10;47.90;;;;;;5081349;28;46607;-66
2022/04/16 09:20:33;;;;;;;7.53;4.50;;;11.80;47.90;;;;;;5063396;28;48654;-66
2022/04/16 09:23:00;;;;;;;6.43;4.23;;;11.50;47.90;;;;;;5081814;28;46410;-64
2022/04/16 09:25:30;;;;;;;6.13;4.20;;;11.50;48.30;;;;;;5063317;28;46433;-64
2022/04/16 09:27:56;;;;;;;5.80;4.33;;;11.60;47.60;;;;;;5063350;28;46640;-64
2022/04/16 09:30:32;;;;;;;8.40;5.20;;;11.40;48.10;;;;;;5066102;28;46486;-62
2022/04/16 09:32:59;;;;;;;6.43;4.60;;;11.20;48.40;;;;;;5065475;28;46420;-61
2022/04/16 09:35:29;;;;;;;8.90;4.90;;;11.00;49.90;;;;;;5068215;28;46442;-62
2022/04/16 09:37:55;;;;;;;6.37;4.83;;;10.90;48.90;;;;;;5070356;27;46548;-62
2022/04/16 09:40:24;;;;;;;9.03;4.37;;;11.10;48.50;;;;;;5062008;28;48298;-63
2022/04/16 09:42:54;;;;;;;7.00;4.40;;;11.10;48.40;;;;;;5054679;28;46355;-62
2022/04/16 09:45:20;;;;;;;5.93;4.30;;;11.30;48.00;;;;;;5060924;28;46433;-61
2022/04/16 09:47:49;;;;;;;5.97;4.07;;;11.30;47.70;;;;;;5065905;28;46507;-61
2022/04/16 09:50:17;;;;;;;6.37;4.27;;;11.40;47.30;;;;;;5058547;28;46331;-61
2022/04/16 09:52:43;;;;;;;5.70;4.43;;;11.50;47.10;;;;;;5058187;28;46729;-61
2022/04/16 09:55:10;;;;;;;5.30;3.90;;;11.60;46.20;;;;;;5061266;28;46416;-62
2022/04/16 09:57:39;;;;;;;5.90;3.97;;;11.80;45.80;;;;;;5058377;28;46440;-62
2022/04/16 10:00:05;;;;;;;6.30;4.50;;;11.70;45.40;;;;;;5055289;27;46557;-63
2022/04/16 10:02:31;;;;;;;5.00;3.87;;;11.70;45.90;;;;;;5055638;28;46450;-63
2022/04/16 10:05:00;;;;;;;6.77;4.43;;;11.50;46.10;;;;;;5061665;28;46806;-62
2022/04/16 10:07:27;;;;;;;6.53;5.00;;;11.20;46.60;;;;;;5059169;28;46480;-63
2022/04/16 10:09:55;;;;;;;6.70;3.70;;;10.90;47.40;;;;;;5064720;28;46688;-62
2022/04/16 10:15:13;;;;;;;5.97;4.40;;;10.70;48.30;;;;;;5062817;28;46227;-61
2022/04/16 10:17:49;;;;;;;7.33;4.90;;;10.50;48.50;;;;;;5059703;28;46448;-63
2022/04/16 10:20:20;;;;;;;7.00;5.03;;;10.50;48.80;;;;;;5065033;28;48068;-63
2022/04/16 10:23:03;;;;;;;8.30;5.30;;;10.60;48.80;;;;;;5059734;28;46421;-62
2022/04/16 10:25:39;;;;;;;9.33;5.53;;;10.60;49.00;;;;;;5054516;28;46299;-62
2022/04/16 10:28:09;;;;;;;6.50;4.73;;;10.80;48.80;;;;;;5057807;28;46567;-61
2022/04/16 10:30:55;;;;;;;6.97;5.37;;;11.00;48.60;;;;;;5057691;28;46138;-61
2022/04/16 10:33:27;;;;;;;6.53;4.70;;;11.30;47.80;;;;;;5052683;28;46327;-63
2022/04/16 10:35:56;;;;;;;6.10;4.60;;;11.40;47.40;;;;;;5057986;28;45866;-62
2022/04/16 10:38:33;;;;;;;6.63;4.67;;;11.40;47.20;;;;;;5060263;28;46416;-61
2022/04/16 10:41:00;;;;;;;8.83;4.47;;;11.40;47.10;;;;;;5056337;28;47132;-63
2022/04/16 10:43:36;;;;;;;8.67;5.03;;;11.30;47.20;;;;;;5045536;28;46389;-62
2022/04/16 10:46:03;;;;;;;5.77;3.87;;;11.20;47.30;;;;;;5052590;28;46366;-61
2022/04/16 10:48:32;;;;;;;8.27;5.50;;;11.30;47.00;;;;;;5058089;28;46460;-62
2022/04/16 10:50:58;;;;;;;6.73;4.37;;;11.60;46.40;;;;;;5050101;28;46455;-61
2022/04/16 10:53:40;;;;;;;6.47;4.37;;;11.70;46.30;;;;;;5041372;28;46544;-61
2022/04/16 10:56:22;;;;;;;8.67;4.13;;;11.70;45.50;;;;;;5049907;28;46258;-62
2022/04/16 10:59:00;;;;;;;8.13;3.93;;;11.60;45.50;;;;;;5041748;28;46322;-63
2022/04/16 11:01:26;;;;;;;6.87;4.40;;;11.80;45.30;;;;;;5049475;28;46598;-62
2022/04/16 11:03:54;;;;;;;5.50;4.27;;;12.00;45.00;;;;;;5040913;28;46532;-62
2022/04/16 11:06:20;;;;;;;6.93;4.47;;;12.00;45.00;;;;;;5050534;28;46432;-62
2022/04/16 11:08:45;;;;;;;5.60;4.07;;;12.20;44.50;;;;;;5045085;28;46877;-62
2022/04/16 11:11:13;;;;;;;6.50;4.77;;;12.50;43.90;;;;;;5036136;28;46347;-62
2022/04/16 11:13:40;;;;;;;7.60;5.07;;;12.90;43.30;;;;;;5043175;28;46361;-62
2022/04/16 11:16:08;;;;;;;5.70;4.13;;;13.10;42.70;;;;;;5053309;28;46326;-62
2022/04/16 11:18:42;;;;;;;6.07;4.17;;;13.40;42.40;;;;;;5048477;28;46656;-63
2022/04/16 11:21:09;;;;;;;6.20;4.30;;;13.50;41.40;;;;;;5048694;28;47184;-61
2022/04/16 11:23:44;;;;;;;5.80;4.20;;;13.70;42.10;;;;;;5049519;28;46430;-61
2022/04/16 11:34:32;;;;;;;6.10;4.60;;;13.20;40.80;;;;;;5044598;28;46426;-62
2022/04/16 11:36:58;;;;;;;6.50;4.63;;;13.00;41.10;;;;;;5045577;28;46107;-61
2022/04/16 11:39:30;;;;;;;7.70;5.17;;;12.50;42.00;;;;;;5039934;28;46318;-62
2022/04/16 11:42:16;;;;;;;6.87;4.90;;;12.40;42.60;;;;;;5044117;28;46343;-62
2022/04/16 11:44:43;;;;;;;5.00;3.80;;;12.10;42.70;;;;;;5041012;28;46446;-62
2022/04/16 11:47:09;;;;;;;5.13;3.70;;;12.10;42.50;;;;;;5045570;28;46551;-62
2022/04/16 11:49:51;;;;;;;6.00;4.00;;;12.20;42.20;;;;;;5045403;28;46656;-62
2022/04/16 11:52:25;;;;;;;7.10;4.37;;;12.10;42.50;;;;;;5042699;28;48115;-61
2022/04/16 11:55:10;;;;;;;7.27;4.53;;;12.30;42.30;;;;;;5046449;28;46338;-62
2022/04/16 11:57:36;;;;;;;5.00;3.73;;;12.40;41.60;;;;;;5047456;28;45797;-61
2022/04/16 12:00:11;;;;;;;4.50;3.60;;;12.80;41.00;;;;;;5045037;28;46536;-62
2022/04/16 12:02:47;;;;;;;8.03;3.73;;;12.90;41.00;;;;;;5042732;28;46626;-61
2022/04/16 12:05:23;;;;;;;4.63;3.50;;;12.80;40.70;;;;;;5042496;28;46504;-62
2022/04/16 12:07:49;;;;;;;6.67;3.70;;;12.80;40.10;;;;;;5042894;28;46360;-62
2022/04/16 12:10:18;;;;;;;4.87;3.43;;;12.60;40.80;;;;;;5044027;28;46544;-61
2022/04/16 12:12:47;;;;;;;4.90;3.87;;;12.50;40.70;;;;;;5046287;28;47874;-62
2022/04/16 12:15:25;;;;;;;6.90;3.90;;;12.40;40.60;;;;;;5043778;28;46490;-62
2022/04/16 12:17:55;;;;;;;5.20;4.07;;;12.40;40.60;;;;;;5038971;28;45799;-62
2022/04/16 12:20:22;;;;;;;5.93;3.47;;;12.40;40.60;;;;;;5045247;28;46396;-61
2022/04/16 12:22:52;;;;;;;5.57;3.60;;;12.20;40.40;;;;;;5025350;28;46370;-61
2022/04/16 12:25:20;;;;;;;3.83;2.73;;;12.40;40.60;;;;;;5043656;28;46614;-61
2022/04/16 12:28:12;;;;;;;4.77;3.40;;;12.30;39.90;;;;;;5035705;28;46359;-62
2022/04/16 12:30:38;;;;;;;5.17;2.87;;;12.40;39.40;;;;;;5051794;28;46819;-61
2022/04/16 12:33:10;;;;;;;5.60;3.50;;;12.30;39.70;;;;;;5040636;28;46402;-62
2022/04/16 12:35:40;;;;;;;7.70;4.27;;;12.30;39.20;;;;;;5045614;28;46477;-64
2022/04/16 12:38:06;;;;;;;5.77;3.80;;;11.90;39.60;;;;;;5054126;28;46327;-64
2022/04/16 12:40:33;;;;;;;6.20;4.13;;;11.70;40.00;;;;;;5052744;28;45939;-62
2022/04/16 12:42:59;;;;;;;5.93;3.70;;;11.60;40.60;;;;;;5056274;28;46311;-63
2022/04/16 12:45:26;;;;;;;5.40;4.27;;;11.60;40.60;;;;;;5054027;28;46294;-63
2022/04/16 12:47:52;;;;;;;7.70;4.07;;;11.60;41.00;;;;;;5051279;28;46389;-62
2022/04/16 12:50:19;;;;;;;5.07;3.57;;;11.90;40.50;;;;;;5043151;28;46493;-64
2022/04/16 12:52:45;;;;;;;5.83;3.83;;;12.20;40.40;;;;;;5049891;28;46639;-62
2022/04/16 12:55:11;;;;;;;5.03;3.90;;;12.60;40.00;;;;;;5049080;28;46404;-63
2022/04/16 12:57:37;;;;;;;7.00;4.70;;;12.70;39.20;;;;;;5052676;28;46519;-62
2022/04/16 13:00:09;;;;;;;7.70;3.60;;;12.80;39.10;;;;;;5051121;28;46387;-61
2022/04/16 13:02:35;;;;;;;5.90;4.47;;;13.10;39.00;;;;;;5055220;28;46578;-63
2022/04/16 13:05:01;;;;;;;8.63;6.03;;;13.10;38.30;;;;;;5048027;28;45874;-62
2022/04/16 13:07:26;;;;;;;6.33;4.20;;;13.10;38.40;;;;;;5046022;28;46014;-63
2022/04/16 13:09:52;;;;;;;6.10;4.37;;;13.20;38.20;;;;;;5049091;28;46457;-63
2022/04/16 13:12:19;;;;;;;5.80;4.00;;;13.00;38.30;;;;;;5048587;28;46461;-63
2022/04/16 13:14:48;;;;;;;4.57;3.40;;;13.10;38.30;;;;;;5045961;28;46461;-62